Time;durP1;ratioP1;P1;durP2;ratioP2;P2;SDS_P1;SDS_P2;PMS_P1;PMS_P2;Temp;Humidity;BMP_temperature;BMP_pressure;BME280_temperature;BME280_humidity;BME280_pressure;Samples;Min_cycle;Max_cycle;Signal;HPM_P1;HPM_P2
2023/07/27 00:02:22;;;;;;;;;;;14.00;99.90;;;;;;5112892;28;19908;-43
2023/07/27 00:04:47;;;;;;;;;;;14.10;99.90;;;;;;5112905;28;19961;-43
2023/07/27 00:07:13;;;;;;;;;;;14.10;99.90;;;;;;5112058;28;20417;-44
2023/07/27 00:09:38;;;;;;;;;;;14.00;99.90;;;;;;5112951;28;19914;-43
2023/07/27 00:12:04;;;;;;;;;;;14.10;99.90;;;;;;5112848;28;20309;-43
2023/07/27 00:14:29;;;;;;;;;;;14.10;99.90;;;;;;5112816;28;19914;-43
2023/07/27 00:16:55;;;;;;;;;;;14.10;99.90;;;;;;5112825;28;19931;-42
2023/07/27 00:19:20;;;;;;;;;;;14.00;99.90;;;;;;5112274;28;20286;-42
2023/07/27 00:21:46;;;;;;;;;;;14.00;99.90;;;;;;5112819;28;20263;-42
2023/07/27 00:24:11;;;;;;;;;;;14.00;99.90;;;;;;5122778;27;19911;-43
2023/07/27 00:26:37;;;;;;;;;;;14.00;99.90;;;;;;5136046;27;19912;-43
2023/07/27 00:29:02;;;;;;;;;;;14.00;99.90;;;;;;5137028;27;20361;-43
2023/07/27 00:31:28;;;;;;;;;;;14.00;99.90;;;;;;5136932;27;19907;-43
2023/07/27 00:33:53;;;;;;;;;;;14.00;99.90;;;;;;5135985;27;19917;-43
2023/07/27 00:36:19;;;;;;;;;;;14.00;99.90;;;;;;5136866;27;19911;-45
2023/07/27 00:38:44;;;;;;;;;;;14.00;99.90;;;;;;5136646;27;19907;-43
2023/07/27 00:41:09;;;;;;;;;;;14.00;99.90;;;;;;5135928;27;19976;-43
2023/07/27 00:43:35;;;;;;;;;;;14.00;99.90;;;;;;5136690;27;20278;-43
2023/07/27 00:46:01;;;;;;;;;;;14.10;99.90;;;;;;5136562;27;19907;-43
2023/07/27 00:48:26;;;;;;;;;;;14.10;99.90;;;;;;5135886;27;19915;-43
2023/07/27 00:50:53;;;;;;;;;;;14.10;99.90;;;;;;5136549;27;19912;-44
2023/07/27 00:53:18;;;;;;;;;;;14.10;99.90;;;;;;5135681;27;19907;-44
2023/07/27 00:55:45;;;;;;;;;;;14.10;99.90;;;;;;5115051;27;20369;-44
2023/07/27 00:58:11;;;;;;;;;;;14.10;99.90;;;;;;5115746;28;19908;-43
2023/07/27 01:00:37;;;;;;;;;;;14.10;99.90;;;;;;5115614;28;19981;-42
2023/07/27 01:03:04;;;;;;;;;;;14.10;99.90;;;;;;5114884;28;19912;-45
2023/07/27 01:05:29;;;;;;;;;;;14.10;99.90;;;;;;5115665;28;19918;-44
2023/07/27 01:07:55;;;;;;;;;;;14.10;99.90;;;;;;5115632;28;20277;-41
2023/07/27 01:10:23;;;;;;;;;;;14.10;99.90;;;;;;5114848;28;20429;-43
2023/07/27 01:12:58;;;;;;;;;;;14.20;99.90;;;;;;5115485;28;19907;-45
2023/07/27 01:15:26;;;;;;;;;;;14.20;99.90;;;;;;5115438;28;19915;-42
2023/07/27 01:17:57;;;;;;;;;;;14.20;99.90;;;;;;5114554;28;19908;-43
2023/07/27 01:20:25;;;;;;;;;;;14.20;99.90;;;;;;5115267;28;19920;-42
2023/07/27 01:23:00;;;;;;;;;;;14.30;99.90;;;;;;5114468;28;20399;-42
2023/07/27 01:25:25;;;;;;;;;;;14.30;99.90;;;;;;5132425;27;19914;-43
2023/07/27 01:28:01;;;;;;;;;;;14.30;99.90;;;;;;5135714;27;19911;-45
2023/07/27 01:30:27;;;;;;;;;;;14.40;99.90;;;;;;5134982;27;20343;-43
2023/07/27 01:32:56;;;;;;;;;;;14.40;99.90;;;;;;5135639;27;19907;-43
2023/07/27 01:35:24;;;;;;;;;;;14.40;99.90;;;;;;5134792;27;19914;-43
2023/07/27 01:37:51;;;;;;;;;;;14.40;99.90;;;;;;5134792;27;19952;-43
2023/07/27 01:40:16;;;;;;;;;;;14.40;99.90;;;;;;5133599;27;19915;-43
2023/07/27 01:42:42;;;;;;;;;;;14.40;99.90;;;;;;5135333;27;19919;-43
2023/07/27 01:45:09;;;;;;;;;;;14.40;99.90;;;;;;5134790;27;19907;-42
2023/07/27 01:47:35;;;;;;;;;;;14.50;99.90;;;;;;5135043;27;20089;-43
2023/07/27 01:50:01;;;;;;;;;;;14.50;99.90;;;;;;5135332;27;19994;-45
2023/07/27 01:52:26;;;;;;;;;;;14.50;99.90;;;;;;5134665;27;20461;-44
2023/07/27 01:54:53;;;;;;;;;;;14.50;99.90;;;;;;5135223;27;20338;-43
2023/07/27 01:57:18;;;;;;;;;;;14.50;99.90;;;;;;5120278;27;20000;-41
2023/07/27 01:59:44;;;;;;;;;;;14.50;99.90;;;;;;5113655;28;19974;-43
2023/07/27 02:02:11;;;;;;;;;;;14.50;99.90;;;;;;5114566;28;19998;-43
2023/07/27 02:04:37;;;;;;;;;;;14.60;99.90;;;;;;5114598;28;19907;-42
2023/07/27 02:07:02;;;;;;;;;;;14.50;99.90;;;;;;5113837;28;20007;-42
2023/07/27 02:09:28;;;;;;;;;;;14.60;99.90;;;;;;5114471;28;19908;-43
2023/07/27 02:12:00;;;;;;;;;;;14.50;99.90;;;;;;5113483;28;20244;-45
2023/07/27 02:14:44;;;;;;;;;;;14.60;99.90;;;;;;5114353;28;19908;-44
2023/07/27 02:17:15;;;;;;;;;;;14.50;99.90;;;;;;5114296;28;20282;-43
2023/07/27 02:19:42;;;;;;;;;;;14.50;99.90;;;;;;5113466;28;19994;-43
2023/07/27 02:22:08;;;;;;;;;;;14.50;99.90;;;;;;5114214;28;19911;-42
2023/07/27 02:24:34;;;;;;;;;;;14.50;99.90;;;;;;5114280;28;20389;-44
2023/07/27 02:26:59;;;;;;;;;;;14.50;99.90;;;;;;5123547;27;19915;-42
2023/07/27 02:29:25;;;;;;;;;;;14.50;99.90;;;;;;5134551;27;20278;-44
2023/07/27 02:31:50;;;;;;;;;;;14.50;99.90;;;;;;5134539;27;19914;-47
2023/07/27 02:34:17;;;;;;;;;;;14.50;99.90;;;;;;5133887;27;19908;-44
2023/07/27 02:36:43;;;;;;;;;;;14.50;99.90;;;;;;5134561;27;19908;-44
2023/07/27 02:39:08;;;;;;;;;;;14.40;99.90;;;;;;5134325;27;19911;-42
2023/07/27 02:41:34;;;;;;;;;;;14.40;99.90;;;;;;5133693;27;19973;-42
2023/07/27 02:43:59;;;;;;;;;;;14.40;99.90;;;;;;5134255;27;19919;-43
2023/07/27 02:46:25;;;;;;;;;;;14.40;99.90;;;;;;5134159;27;19907;-42
2023/07/27 02:48:53;;;;;;;;;;;14.40;99.90;;;;;;5133408;27;19915;-43
2023/07/27 02:51:18;;;;;;;;;;;14.40;99.90;;;;;;5134290;27;20587;-42
2023/07/27 02:53:44;;;;;;;;;;;14.40;99.90;;;;;;5134212;27;20382;-43
2023/07/27 02:56:09;;;;;;;;;;;14.40;99.90;;;;;;5130543;27;20377;-43
2023/07/27 02:58:35;;;;;;;;;;;14.40;99.90;;;;;;5113540;28;19911;-45
2023/07/27 03:01:02;;;;;;;;;;;14.40;99.90;;;;;;5113425;28;19962;-42
2023/07/27 03:03:27;;;;;;;;;;;14.40;99.90;;;;;;5112737;28;19912;-43
2023/07/27 03:06:00;;;;;;;;;;;14.30;99.90;;;;;;5113441;28;20346;-43
2023/07/27 03:08:26;;;;;;;;;;;14.40;99.90;;;;;;5112885;28;20023;-44
2023/07/27 03:10:52;;;;;;;;;;;14.30;99.90;;;;;;5113631;28;19998;-42
2023/07/27 03:13:17;;;;;;;;;;;14.30;99.90;;;;;;5113556;28;19915;-43
2023/07/27 03:15:43;;;;;;;;;;;14.30;99.90;;;;;;5112726;28;19908;-42
2023/07/27 03:18:08;;;;;;;;;;;14.30;99.90;;;;;;5113171;28;19976;-43
2023/07/27 03:20:37;;;;;;;;;;;14.30;99.90;;;;;;5113157;28;19915;-43
2023/07/27 03:23:03;;;;;;;;;;;14.30;99.90;;;;;;5112881;28;20363;-45
2023/07/27 03:25:31;;;;;;;;;;;14.30;99.90;;;;;;5113315;28;19912;-42
2023/07/27 03:27:56;;;;;;;;;;;14.30;99.90;;;;;;5129393;28;19911;-47
2023/07/27 03:30:22;;;;;;;;;;;14.30;99.90;;;;;;5130932;28;19960;-43
2023/07/27 03:32:47;;;;;;;;;;;14.30;99.90;;;;;;5116205;28;19914;-46
2023/07/27 03:35:13;;;;;;;;;;;14.30;99.90;;;;;;5130913;28;20006;-43
2023/07/27 03:37:38;;;;;;;;;;;14.30;99.90;;;;;;5112412;28;19908;-42
2023/07/27 03:40:04;;;;;;;;;;;14.30;99.90;;;;;;5112944;28;19916;-43
2023/07/27 03:42:30;;;;;;;;;;;14.30;99.90;;;;;;5112835;28;19919;-42
2023/07/27 03:44:55;;;;;;;;;;;14.40;99.90;;;;;;5115480;28;19907;-43
2023/07/27 03:47:21;;;;;;;;;;;14.30;99.90;;;;;;5133466;28;19907;-42
2023/07/27 03:49:46;;;;;;;;;;;14.40;99.90;;;;;;5133503;28;19961;-42
2023/07/27 03:52:12;;;;;;;;;;;14.40;99.90;;;;;;5132787;28;19914;-43
2023/07/27 03:54:37;;;;;;;;;;;14.30;99.90;;;;;;5133519;28;19907;-43
2023/07/27 03:57:05;;;;;;;;;;;14.30;99.90;;;;;;5132270;28;20420;-42
2023/07/27 03:59:30;;;;;;;;;;;14.40;99.90;;;;;;5135102;27;19965;-43
2023/07/27 04:01:56;;;;;;;;;;;14.40;99.90;;;;;;5137381;27;20285;-42
2023/07/27 04:04:21;;;;;;;;;;;14.40;99.90;;;;;;5137427;27;19908;-47
2023/07/27 04:06:47;;;;;;;;;;;14.40;99.90;;;;;;5136257;27;20362;-42
2023/07/27 04:09:12;;;;;;;;;;;14.40;99.90;;;;;;5137290;27;20366;-44
2023/07/27 04:11:38;;;;;;;;;;;14.30;99.90;;;;;;5136576;27;19942;-43
2023/07/27 04:14:03;;;;;;;;;;;14.40;99.90;;;;;;5137087;27;20278;-44
2023/07/27 04:16:29;;;;;;;;;;;14.40;99.90;;;;;;5135882;27;19914;-47
2023/07/27 04:18:54;;;;;;;;;;;14.30;99.90;;;;;;5115699;28;19912;-44
2023/07/27 04:21:19;;;;;;;;;;;14.40;99.90;;;;;;5116566;28;19979;-43
2023/07/27 04:23:45;;;;;;;;;;;14.40;99.90;;;;;;5118861;27;20006;-43
2023/07/27 04:26:11;;;;;;;;;;;14.30;99.90;;;;;;5125046;27;19912;-42
2023/07/27 04:28:36;;;;;;;;;;;14.30;99.90;;;;;;5124650;27;19971;-42
2023/07/27 04:31:02;;;;;;;;;;;14.40;99.90;;;;;;5127410;27;20031;-44
2023/07/27 04:33:27;;;;;;;;;;;14.40;99.90;;;;;;5135643;27;19957;-47
2023/07/27 04:35:53;;;;;;;;;;;14.40;99.90;;;;;;5118552;27;19911;-43
2023/07/27 04:38:18;;;;;;;;;;;14.50;99.90;;;;;;5122130;27;19951;-44
2023/07/27 04:40:44;;;;;;;;;;;14.40;99.90;;;;;;5126838;27;20301;-42
2023/07/27 04:43:09;;;;;;;;;;;14.50;99.90;;;;;;5136114;27;19919;-43
2023/07/27 04:45:35;;;;;;;;;;;14.50;99.90;;;;;;5122494;27;19959;-46
2023/07/27 04:48:00;;;;;;;;;;;14.50;99.90;;;;;;5115207;28;19908;-44
2023/07/27 04:50:26;;;;;;;;;;;14.50;99.90;;;;;;5116001;28;19908;-45
2023/07/27 04:52:51;;;;;;;;;;;14.50;99.90;;;;;;5117633;27;19911;-45
2023/07/27 04:55:16;;;;;;;;;;;14.50;99.90;;;;;;5122789;27;20386;-46
2023/07/27 04:57:42;;;;;;;;;;;14.50;99.90;;;;;;5118526;27;19915;-42
2023/07/27 05:00:08;;;;;;;;;;;14.50;99.90;;;;;;5120677;27;19916;-42
2023/07/27 05:02:33;;;;;;;;;;;14.50;99.90;;;;;;5117986;27;19939;-42
2023/07/27 05:04:58;;;;;;;;;;;14.60;99.90;;;;;;5122768;27;20002;-42
2023/07/27 05:07:24;;;;;;;;;;;14.60;99.90;;;;;;5135539;27;19908;-43
2023/07/27 05:09:49;;;;;;;;;;;14.50;99.90;;;;;;5134150;27;19908;-43
2023/07/27 05:12:15;;;;;;;;;;;14.60;99.90;;;;;;5130326;27;20373;-43
2023/07/27 05:14:41;;;;;;;;;;;14.60;99.90;;;;;;5119850;27;22216;-46
2023/07/27 05:17:06;;;;;;;;;;;14.60;99.90;;;;;;5133250;27;19914;-44
2023/07/27 05:19:32;;;;;;;;;;;14.60;99.90;;;;;;5135866;27;19954;-43
2023/07/27 05:21:57;;;;;;;;;;;14.70;99.90;;;;;;5134908;27;19956;-43
2023/07/27 05:24:23;;;;;;;;;;;14.70;99.90;;;;;;5127202;27;19935;-42
2023/07/27 05:26:48;;;;;;;;;;;14.70;99.90;;;;;;5122260;27;19911;-42
2023/07/27 05:29:14;;;;;;;;;;;14.70;99.90;;;;;;5135100;27;20002;-43
2023/07/27 05:31:40;;;;;;;;;;;14.80;99.90;;;;;;5135506;27;20392;-44
2023/07/27 05:34:07;;;;;;;;;;;14.80;99.90;;;;;;5135241;27;19907;-43
2023/07/27 05:36:33;;;;;;;;;;;14.80;99.90;;;;;;5134975;27;19915;-43
2023/07/27 05:38:58;;;;;;;;;;;14.80;99.90;;;;;;5129153;27;20048;-47
2023/07/27 05:41:24;;;;;;;;;;;14.80;99.90;;;;;;5118835;27;19922;-42
2023/07/27 05:43:49;;;;;;;;;;;14.80;99.90;;;;;;5119962;27;20016;-43
2023/07/27 05:46:15;;;;;;;;;;;14.80;99.90;;;;;;5113373;27;19923;-44
2023/07/27 05:48:40;;;;;;;;;;;14.80;99.90;;;;;;5128352;27;19915;-43
2023/07/27 05:51:06;;;;;;;;;;;14.80;99.90;;;;;;5126970;27;19907;-42
2023/07/27 05:53:31;;;;;;;;;;;14.80;99.90;;;;;;5120247;27;20255;-42
2023/07/27 05:55:57;;;;;;;;;;;14.80;99.90;;;;;;5114594;27;20411;-45
2023/07/27 05:58:22;;;;;;;;;;;14.90;99.90;;;;;;5117541;27;20002;-43
2023/07/27 06:00:48;;;;;;;;;;;14.90;99.90;;;;;;5126831;27;20259;-44
2023/07/27 06:03:13;;;;;;;;;;;14.90;99.90;;;;;;5122049;27;19950;-44
2023/07/27 06:05:43;;;;;;;;;;;14.90;99.90;;;;;;5114298;27;19919;-43
2023/07/27 06:08:08;;;;;;;;;;;15.00;99.90;;;;;;5120655;27;19933;-43
2023/07/27 06:10:34;;;;;;;;;;;15.00;99.90;;;;;;5120232;27;20423;-44
2023/07/27 06:12:59;;;;;;;;;;;15.00;99.90;;;;;;5121183;27;19908;-42
2023/07/27 06:15:24;;;;;;;;;;;15.00;99.90;;;;;;5126087;27;20011;-42
2023/07/27 06:17:50;;;;;;;;;;;15.10;99.90;;;;;;5131202;27;19934;-43
2023/07/27 06:20:15;;;;;;;;;;;15.20;99.90;;;;;;5128091;27;19920;-42
2023/07/27 06:22:41;;;;;;;;;;;15.20;99.90;;;;;;5124905;27;19935;-44
2023/07/27 06:25:07;;;;;;;;;;;15.30;99.90;;;;;;5119313;27;19912;-43
2023/07/27 06:27:32;;;;;;;;;;;15.30;99.90;;;;;;5134792;27;20045;-45
2023/07/27 06:29:57;;;;;;;;;;;15.30;99.90;;;;;;5130480;27;20386;-43
2023/07/27 06:32:23;;;;;;;;;;;15.30;99.90;;;;;;5123011;27;20198;-43
2023/07/27 06:34:48;;;;;;;;;;;15.30;99.90;;;;;;5123001;27;20320;-42
2023/07/27 06:37:14;;;;;;;;;;;15.40;99.90;;;;;;5121584;27;19919;-43
2023/07/27 06:39:39;;;;;;;;;;;15.30;99.90;;;;;;5132701;27;20002;-43
2023/07/27 06:42:06;;;;;;;;;;;15.30;99.90;;;;;;5128516;27;20388;-42
2023/07/27 06:44:32;;;;;;;;;;;15.30;99.90;;;;;;5134256;27;19930;-42
2023/07/27 06:46:57;;;;;;;;;;;15.30;99.90;;;;;;5120724;27;20331;-44
2023/07/27 06:49:23;;;;;;;;;;;15.30;99.90;;;;;;5128926;27;20006;-47
2023/07/27 06:51:48;;;;;;;;;;;15.40;99.90;;;;;;5128461;27;19921;-43
2023/07/27 06:54:14;;;;;;;;;;;15.40;99.90;;;;;;5127798;27;19918;-44
2023/07/27 06:56:39;;;;;;;;;;;15.50;99.90;;;;;;5126630;27;19918;-41
2023/07/27 06:59:05;;;;;;;;;;;15.60;99.90;;;;;;5113372;28;19911;-42
2023/07/27 07:01:30;;;;;;;;;;;15.70;99.90;;;;;;5117634;27;19919;-43
2023/07/27 07:03:56;;;;;;;;;;;15.70;99.90;;;;;;5118227;27;19911;-43
2023/07/27 07:06:21;;;;;;;;;;;15.70;99.90;;;;;;5121166;27;19962;-43
2023/07/27 07:08:47;;;;;;;;;;;15.70;99.90;;;;;;5121879;27;20346;-45
2023/07/27 07:11:13;;;;;;;;;;;15.70;99.90;;;;;;5118010;27;19916;-42
2023/07/27 07:13:39;;;;;;;;;;;15.70;99.90;;;;;;5118059;27;19956;-44
2023/07/27 07:16:05;;;;;;;;;;;15.70;99.90;;;;;;5118850;27;19916;-45
2023/07/27 07:18:30;;;;;;;;;;;15.80;99.90;;;;;;5125170;27;20196;-44
2023/07/27 07:20:56;;;;;;;;;;;15.80;99.90;;;;;;5120003;27;19927;-44
2023/07/27 07:23:22;;;;;;;;;;;15.80;99.90;;;;;;5114160;28;19915;-43
2023/07/27 07:25:47;;;;;;;;;;;15.80;99.90;;;;;;5120083;28;20473;-43
2023/07/27 07:28:13;;;;;;;;;;;15.90;99.90;;;;;;5123250;28;20266;-49
2023/07/27 07:30:38;;;;;;;;;;;15.90;99.90;;;;;;5119099;28;20015;-43
2023/07/27 07:33:04;;;;;;;;;;;15.90;99.90;;;;;;5117490;28;19919;-42
2023/07/27 07:35:30;;;;;;;;;;;15.90;99.90;;;;;;5116816;27;20064;-42
2023/07/27 07:37:55;;;;;;;;;;;15.90;99.90;;;;;;5123681;27;19991;-44
2023/07/27 07:40:24;;;;;;;;;;;16.00;99.90;;;;;;5125096;27;19919;-42
2023/07/27 07:42:49;;;;;;;;;;;16.00;99.90;;;;;;5119624;27;20289;-44
2023/07/27 07:45:15;;;;;;;;;;;16.00;99.90;;;;;;5125934;27;19919;-45
2023/07/27 07:47:40;;;;;;;;;;;16.00;99.90;;;;;;5118612;27;19972;-43
2023/07/27 07:50:06;;;;;;;;;;;16.00;99.90;;;;;;5117244;27;20006;-43
2023/07/27 07:52:32;;;;;;;;;;;16.00;99.90;;;;;;5124561;27;19912;-43
2023/07/27 07:54:57;;;;;;;;;;;16.00;99.90;;;;;;5116956;28;19914;-44
2023/07/27 07:57:22;;;;;;;;;;;16.00;99.90;;;;;;5116470;28;19912;-43
2023/07/27 07:59:48;;;;;;;;;;;16.00;99.90;;;;;;5124556;27;20374;-43
2023/07/27 08:02:14;;;;;;;;;;;16.00;99.90;;;;;;5117080;28;19919;-43
2023/07/27 08:04:39;;;;;;;;;;;16.00;99.90;;;;;;5130374;27;19914;-43
2023/07/27 08:07:05;;;;;;;;;;;16.10;99.90;;;;;;5131772;27;20280;-47
2023/07/27 08:09:31;;;;;;;;;;;16.10;99.90;;;;;;5122827;27;19927;-44
2023/07/27 08:11:56;;;;;;;;;;;16.00;99.90;;;;;;5116184;27;19935;-47
2023/07/27 08:14:23;;;;;;;;;;;16.00;99.90;;;;;;5116949;27;19915;-43
2023/07/27 08:16:49;;;;;;;;;;;16.10;99.90;;;;;;5123734;27;19982;-42
2023/07/27 08:19:15;;;;;;;;;;;16.10;99.90;;;;;;5127882;27;20010;-44
2023/07/27 08:21:40;;;;;;;;;;;16.10;99.90;;;;;;5118249;27;20486;-44
2023/07/27 08:24:06;;;;;;;;;;;16.20;99.90;;;;;;5120848;27;19911;-43
2023/07/27 08:26:32;;;;;;;;;;;16.20;99.90;;;;;;5116923;27;20425;-42
2023/07/27 08:28:57;;;;;;;;;;;16.20;99.90;;;;;;5125249;27;20010;-48
2023/07/27 08:31:23;;;;;;;;;;;16.20;99.90;;;;;;5120928;27;19929;-45
2023/07/27 08:33:48;;;;;;;;;;;16.20;99.90;;;;;;5118776;27;20482;-43
2023/07/27 08:36:14;;;;;;;;;;;16.20;99.90;;;;;;5128478;27;19907;-42
2023/07/27 08:38:39;;;;;;;;;;;16.30;99.90;;;;;;5123909;27;20320;-41
2023/07/27 08:41:05;;;;;;;;;;;16.30;99.90;;;;;;5121533;27;19919;-43
2023/07/27 08:43:30;;;;;;;;;;;16.40;99.90;;;;;;5118371;27;20431;-43
2023/07/27 08:45:56;;;;;;;;;;;16.40;99.90;;;;;;5115515;27;19912;-43
2023/07/27 08:48:25;;;;;;;;;;;16.40;99.90;;;;;;5116646;27;19995;-45
2023/07/27 08:50:51;;;;;;;;;;;16.40;99.90;;;;;;5132531;27;19908;-43
2023/07/27 08:53:17;;;;;;;;;;;16.50;99.90;;;;;;5121793;27;20018;-43
2023/07/27 08:55:43;;;;;;;;;;;16.50;99.90;;;;;;5117217;27;19990;-44
2023/07/27 08:58:10;;;;;;;;;;;16.50;99.90;;;;;;5116158;27;20370;-43
2023/07/27 09:00:35;;;;;;;;;;;16.50;99.90;;;;;;5117644;27;20024;-43
2023/07/27 09:03:01;;;;;;;;;;;16.50;99.90;;;;;;5121720;27;20385;-42
2023/07/27 09:05:57;;;;;;;;;;;16.40;99.90;;;;;;5125935;27;19911;-44
2023/07/27 09:08:22;;;;;;;;;;;16.40;99.90;;;;;;5111060;27;19960;-44
2023/07/27 09:10:48;;;;;;;;;;;16.40;99.90;;;;;;5128221;27;19990;-42
2023/07/27 09:13:13;;;;;;;;;;;16.40;99.90;;;;;;5130698;27;19995;-42
2023/07/27 09:15:43;;;;;;;;;;;16.50;99.90;;;;;;5115275;27;19927;-43
2023/07/27 09:18:13;;;;;;;;;;;16.60;99.90;;;;;;5124505;27;20086;-43
2023/07/27 09:20:40;;;;;;;;;;;16.70;99.90;;;;;;5127981;27;19922;-42
2023/07/27 09:23:05;;;;;;;;;;;16.70;99.90;;;;;;5123444;27;19915;-43
2023/07/27 09:25:31;;;;;;;;;;;16.80;99.90;;;;;;5118605;27;19919;-42
2023/07/27 09:27:57;;;;;;;;;;;16.80;99.90;;;;;;5121673;27;19957;-46
2023/07/27 09:30:23;;;;;;;;;;;16.90;99.90;;;;;;5120436;27;19958;-46
2023/07/27 09:32:49;;;;;;;;;;;16.90;99.90;;;;;;5129907;27;19912;-42
2023/07/27 09:35:15;;;;;;;;;;;17.00;99.90;;;;;;5126338;27;20400;-43
2023/07/27 09:37:48;;;;;;;;;;;17.10;99.90;;;;;;5116872;27;19955;-44
2023/07/27 09:40:16;;;;;;;;;;;17.10;99.90;;;;;;5124283;27;19920;-44
2023/07/27 09:42:42;;;;;;;;;;;17.10;99.90;;;;;;5121622;27;19970;-43
2023/07/27 09:45:08;;;;;;;;;;;17.10;99.90;;;;;;5118373;27;20281;-44
2023/07/27 09:47:34;;;;;;;;;;;17.10;99.90;;;;;;5118229;27;19965;-45
2023/07/27 09:50:01;;;;;;;;;;;17.10;99.90;;;;;;5120378;27;20382;-43
2023/07/27 09:52:27;;;;;;;;;;;17.10;99.90;;;;;;5135592;27;19919;-42
2023/07/27 09:54:57;;;;;;;;;;;17.10;99.90;;;;;;5120484;27;19915;-43
2023/07/27 09:57:22;;;;;;;;;;;17.10;99.90;;;;;;5119681;27;19907;-44
2023/07/27 09:59:48;;;;;;;;;;;17.20;99.90;;;;;;5129444;27;20266;-44
2023/07/27 10:02:14;;;;;;;;;;;17.10;99.90;;;;;;5132654;27;20009;-43
2023/07/27 10:04:43;;;;;;;;;;;17.20;99.90;;;;;;5135022;27;20347;-43
2023/07/27 10:07:09;;;;;;;;;;;17.10;99.90;;;;;;5134793;27;19915;-45
2023/07/27 10:09:36;;;;;;;;;;;17.10;99.90;;;;;;5135422;27;19907;-43
2023/07/27 10:12:03;;;;;;;;;;;17.10;99.90;;;;;;5134560;27;20057;-44
2023/07/27 10:14:29;;;;;;;;;;;17.10;99.90;;;;;;5134946;27;19951;-43
2023/07/27 10:17:01;;;;;;;;;;;17.20;99.90;;;;;;5133861;27;20254;-44
2023/07/27 10:19:40;;;;;;;;;;;17.20;99.90;;;;;;5121032;27;19918;-43
2023/07/27 10:22:16;;;;;;;;;;;17.20;99.90;;;;;;5119609;27;19916;-43
2023/07/27 10:24:47;;;;;;;;;;;17.20;99.90;;;;;;5114399;28;19908;-45
2023/07/27 10:27:13;;;;;;;;;;;17.20;99.90;;;;;;5114663;28;19915;-45
2023/07/27 10:29:38;;;;;;;;;;;17.20;99.90;;;;;;5115024;28;19911;-43
2023/07/27 10:32:06;;;;;;;;;;;17.30;99.90;;;;;;5113997;28;19915;-45
2023/07/27 10:34:32;;;;;;;;;;;17.20;99.90;;;;;;5118140;27;19935;-43
2023/07/27 10:36:59;;;;;;;;;;;17.20;99.90;;;;;;5114719;27;19914;-46
2023/07/27 10:39:26;;;;;;;;;;;17.30;99.90;;;;;;5121656;27;19914;-49
2023/07/27 10:41:59;;;;;;;;;;;17.30;99.90;;;;;;5123895;27;19997;-43
2023/07/27 10:44:44;;;;;;;;;;;17.30;99.90;;;;;;5117894;27;19911;-46
2023/07/27 10:47:10;;;;;;;;;;;17.40;99.90;;;;;;5113902;27;20390;-43
2023/07/27 10:49:40;;;;;;;;;;;17.40;99.90;;;;;;5119822;27;19919;-42
2023/07/27 10:52:06;;;;;;;;;;;17.50;99.90;;;;;;5144736;27;19915;-42
2023/07/27 10:54:31;;;;;;;;;;;17.50;99.90;;;;;;5120824;27;20007;-44
2023/07/27 10:56:57;;;;;;;;;;;17.50;99.90;;;;;;5114127;28;20011;-45
2023/07/27 10:59:24;;;;;;;;;;;17.50;99.90;;;;;;5113698;28;20373;-51
2023/07/27 11:01:50;;;;;;;;;;;17.50;99.90;;;;;;5120218;27;19915;-43
2023/07/27 11:04:15;;;;;;;;;;;17.60;99.90;;;;;;5125103;27;19965;-43
2023/07/27 11:06:42;;;;;;;;;;;17.60;99.90;;;;;;5119980;27;19915;-44
2023/07/27 11:09:11;;;;;;;;;;;17.60;99.90;;;;;;5113567;28;20377;-48
2023/07/27 11:11:37;;;;;;;;;;;17.70;99.90;;;;;;5129998;27;19919;-44
2023/07/27 11:14:06;;;;;;;;;;;17.80;99.90;;;;;;5129083;27;19911;-47
2023/07/27 11:16:33;;;;;;;;;;;17.80;99.90;;;;;;5116019;27;20282;-42
2023/07/27 11:19:00;;;;;;;;;;;17.80;99.90;;;;;;5124360;27;20270;-42
2023/07/27 11:21:26;;;;;;;;;;;17.90;99.90;;;;;;5122581;27;20346;-44
2023/07/27 11:23:51;;;;;;;;;;;18.00;99.90;;;;;;5122767;28;19911;-46
2023/07/27 11:26:17;;;;;;;;;;;18.00;99.90;;;;;;5132855;28;19907;-46
2023/07/27 11:28:43;;;;;;;;;;;18.10;99.90;;;;;;5132789;28;19942;-42
2023/07/27 11:31:08;;;;;;;;;;;18.20;99.90;;;;;;5133205;27;19912;-44
2023/07/27 11:33:37;;;;;;;;;;;18.20;99.90;;;;;;5133156;28;19923;-42
2023/07/27 11:36:04;;;;;;;;;;;18.20;99.90;;;;;;5125542;28;19907;-43
2023/07/27 11:38:30;;;;;;;;;;;18.30;99.90;;;;;;5130118;27;19916;-44
2023/07/27 11:40:57;;;;;;;;;;;18.30;99.90;;;;;;5152883;27;19965;-45
2023/07/27 11:43:26;;;;;;;;;;;18.40;99.90;;;;;;5147611;27;19927;-42
2023/07/27 11:45:55;;;;;;;;;;;18.40;99.90;;;;;;5132404;28;20345;-43
2023/07/27 11:48:28;;;;;;;;;;;18.40;99.90;;;;;;5132195;28;19917;-46
2023/07/27 11:50:55;;;;;;;;;;;18.40;99.90;;;;;;5138509;27;19919;-44
2023/07/27 11:53:22;;;;;;;;;;;18.40;99.90;;;;;;5118033;28;19915;-43
2023/07/27 11:55:48;;;;;;;;;;;18.30;99.90;;;;;;5132664;28;19914;-42
2023/07/27 11:58:13;;;;;;;;;;;18.40;99.90;;;;;;5133099;28;19920;-42
2023/07/27 12:00:39;;;;;;;;;;;18.50;99.90;;;;;;5132852;27;19923;-42
2023/07/27 12:03:04;;;;;;;;;;;18.50;99.90;;;;;;5132007;28;19925;-43
2023/07/27 12:05:31;;;;;;;;;;;18.50;99.90;;;;;;5131142;28;19947;-43
2023/07/27 12:07:57;;;;;;;;;;;18.50;99.90;;;;;;5115189;28;19915;-49
2023/07/27 12:10:23;;;;;;;;;;;18.50;99.90;;;;;;5113426;28;19908;-42
2023/07/27 12:12:59;;;;;;;;;;;18.50;99.90;;;;;;5112808;28;19916;-44
2023/07/27 12:15:28;;;;;;;;;;;18.50;99.90;;;;;;5129573;28;19919;-45
2023/07/27 12:17:58;;;;;;;;;;;18.50;99.90;;;;;;5132384;28;19939;-44
2023/07/27 12:20:28;;;;;;;;;;;18.50;99.90;;;;;;5132234;27;19989;-46
2023/07/27 12:22:53;;;;;;;;;;;18.40;99.90;;;;;;5128461;27;20107;-43
2023/07/27 12:25:19;;;;;;;;;;;18.40;99.90;;;;;;5119970;27;20034;-42
2023/07/27 12:27:45;;;;;;;;;;;18.40;99.90;;;;;;5141311;27;19911;-44
2023/07/27 12:30:11;;;;;;;;;;;18.40;99.90;;;;;;5158212;27;19914;-45
2023/07/27 12:32:37;;;;;;;;;;;18.40;99.90;;;;;;5157888;27;19907;-43
2023/07/27 12:35:03;;;;;;;;;;;18.40;99.90;;;;;;5147009;27;19920;-44
2023/07/27 12:37:30;;;;;;;;;;;18.50;99.90;;;;;;5127848;27;20278;-44
2023/07/27 12:39:56;;;;;;;;;;;18.50;99.90;;;;;;5122458;27;19923;-44
2023/07/27 12:42:22;;;;;;;;;;;18.60;99.90;;;;;;5119765;27;19930;-43
2023/07/27 12:44:48;;;;;;;;;;;18.70;99.90;;;;;;5123629;27;19918;-48
2023/07/27 12:47:13;;;;;;;;;;;18.70;99.90;;;;;;5124373;27;20182;-46
2023/07/27 12:49:39;;;;;;;;;;;18.70;99.90;;;;;;5130938;27;19928;-45
2023/07/27 12:52:04;;;;;;;;;;;18.70;99.90;;;;;;5115487;28;20349;-46
2023/07/27 12:54:30;;;;;;;;;;;18.70;99.90;;;;;;5114596;28;19908;-46
2023/07/27 12:56:55;;;;;;;;;;;18.70;99.90;;;;;;5119606;27;19912;-44
2023/07/27 12:59:22;;;;;;;;;;;18.70;99.90;;;;;;5136490;27;19953;-44
2023/07/27 13:01:48;;;;;;;;;;;18.70;99.90;;;;;;5136853;27;19908;-44
2023/07/27 13:04:14;;;;;;;;;;;18.70;99.90;;;;;;5117808;27;20424;-44
2023/07/27 13:06:39;;;;;;;;;;;18.80;99.90;;;;;;5135537;27;19930;-46
2023/07/27 13:09:05;;;;;;;;;;;18.80;99.90;;;;;;5157325;27;20519;-46
2023/07/27 13:11:31;;;;;;;;;;;18.80;99.90;;;;;;5157674;27;19907;-45
2023/07/27 13:13:57;;;;;;;;;;;18.80;99.90;;;;;;5156917;27;19978;-45
2023/07/27 13:16:22;;;;;;;;;;;18.80;99.90;;;;;;5157059;27;19918;-48
2023/07/27 13:18:48;;;;;;;;;;;18.90;99.90;;;;;;5156827;27;19914;-44
2023/07/27 13:21:13;;;;;;;;;;;18.90;99.90;;;;;;5138426;27;19930;-46
2023/07/27 13:23:40;;;;;;;;;;;19.00;99.90;;;;;;5139883;27;19907;-46
2023/07/27 13:26:06;;;;;;;;;;;19.00;99.90;;;;;;5143738;27;20508;-43
2023/07/27 13:28:32;;;;;;;;;;;19.10;99.90;;;;;;5122106;27;19964;-46
2023/07/27 13:31:01;;;;;;;;;;;19.10;99.90;;;;;;5135480;27;19915;-47
2023/07/27 13:33:26;;;;;;;;;;;19.20;99.90;;;;;;5127277;27;20429;-45
2023/07/27 13:35:53;;;;;;;;;;;19.20;99.90;;;;;;5117862;27;20015;-50
2023/07/27 13:38:19;;;;;;;;;;;19.20;99.90;;;;;;5127306;27;20415;-46
2023/07/27 13:40:45;;;;;;;;;;;19.30;99.90;;;;;;5127197;27;19937;-43
2023/07/27 13:43:11;;;;;;;;;;;19.30;99.90;;;;;;5133585;27;20413;-44
2023/07/27 13:45:36;;;;;;;;;;;19.30;99.90;;;;;;5126723;27;20278;-44
2023/07/27 13:48:03;;;;;;;;;;;19.30;99.90;;;;;;5134676;27;19907;-45
2023/07/27 13:50:29;;;;;;;;;;;19.20;99.90;;;;;;5135599;27;19916;-45
2023/07/27 13:52:54;;;;;;;;;;;19.30;99.90;;;;;;5136099;27;19912;-44
2023/07/27 13:55:20;;;;;;;;;;;19.30;99.90;;;;;;5135284;27;19934;-44
2023/07/27 13:57:45;;;;;;;;;;;19.30;99.90;;;;;;5135945;27;20032;-44
2023/07/27 14:00:11;;;;;;;;;;;19.30;99.90;;;;;;5135800;27;20358;-46
2023/07/27 14:02:37;;;;;;;;;;;19.30;99.90;;;;;;5131765;27;20369;-44
2023/07/27 14:05:03;;;;;;;;;;;19.30;99.90;;;;;;5132123;27;19912;-47
2023/07/27 14:07:29;;;;;;;;;;;19.30;99.90;;;;;;5135598;27;19912;-45
2023/07/27 14:09:54;;;;;;;;;;;19.30;99.90;;;;;;5125041;27;19914;-48
2023/07/27 14:12:20;;;;;;;;;;;19.30;99.90;;;;;;5119076;27;20019;-44